Time;durP1;ratioP1;P1;durP2;ratioP2;P2;SDS_P1;SDS_P2;PMS_P1;PMS_P2;Temp;Humidity;BMP_temperature;BMP_pressure;BME280_temperature;BME280_humidity;BME280_pressure;Samples;Min_cycle;Max_cycle;Signal;HPM_P1;HPM_P2
2023/09/24 00:01:50;;;;;;;;;;;;;;;12.80;44.26;101278.53;4909518;28;98496;-61
2023/09/24 00:04:17;;;;;;;;;;;;;;;12.79;44.31;101282.31;4926039;28;129032;-56
2023/09/24 00:06:45;;;;;;;;;;;;;;;12.76;44.30;101283.66;4925791;28;98294;-61
2023/09/24 00:09:12;;;;;;;;;;;;;;;12.75;44.39;101283.91;4921728;28;100035;-56
2023/09/24 00:11:38;;;;;;;;;;;;;;;12.72;44.11;101285.25;4905586;28;98228;-61
2023/09/24 00:14:05;;;;;;;;;;;;;;;12.70;44.35;101290.13;4909760;28;98320;-61
2023/09/24 00:16:31;;;;;;;;;;;;;;;12.68;44.09;101296.84;4925613;28;98045;-56
2023/09/24 00:18:57;;;;;;;;;;;;;;;12.67;44.21;101301.44;4941946;28;98433;-56
2023/09/24 00:21:24;;;;;;;;;;;;;;;12.64;44.27;101306.56;4920241;28;98754;-56
2023/09/24 00:23:51;;;;;;;;;;;;;;;12.62;44.32;101309.53;4929567;28;98097;-55
2023/09/24 00:26:18;;;;;;;;;;;;;;;12.60;44.17;101305.47;4927123;28;99240;-57
2023/09/24 00:28:44;;;;;;;;;;;;;;;12.58;44.27;101310.34;4888075;28;98643;-61
2023/09/24 00:31:11;;;;;;;;;;;;;;;12.56;44.29;101310.56;4937300;28;120380;-61
2023/09/24 00:33:37;;;;;;;;;;;;;;;12.53;44.10;101311.09;4928190;28;98230;-55
2023/09/24 00:36:05;;;;;;;;;;;;;;;12.50;44.22;101311.63;4914263;28;98145;-56
2023/09/24 00:38:31;;;;;;;;;;;;;;;12.46;44.06;101307.81;4910085;28;98479;-55
2023/09/24 00:40:57;;;;;;;;;;;;;;;12.43;44.34;101309.13;4908117;28;98134;-61
2023/09/24 00:43:31;;;;;;;;;;;;;;;12.42;44.11;101306.69;4920626;28;111903;-55
2023/09/24 00:45:58;;;;;;;;;;;;;;;12.39;44.21;101302.63;4950436;28;98055;-55
2023/09/24 00:48:28;;;;;;;;;;;;;;;12.37;44.14;101304.75;4933644;28;98682;-61
2023/09/24 00:51:04;;;;;;;;;;;;;;;12.36;44.26;101307.72;4940305;28;98601;-56
2023/09/24 00:53:30;;;;;;;;;;;;;;;12.33;44.18;101310.94;4910524;28;98091;-55
2023/09/24 00:55:56;;;;;;;;;;;;;;;12.28;43.95;101309.03;4891725;28;98165;-61
2023/09/24 00:58:26;;;;;;;;;;;;;;;12.24;44.20;101318.72;4928729;28;98874;-55
2023/09/24 01:00:53;;;;;;;;;;;;;;;12.20;44.37;101315.72;4913586;28;97981;-55
2023/09/24 01:03:21;;;;;;;;;;;;;;;12.19;44.26;101324.91;4926802;28;98281;-55
2023/09/24 01:05:49;;;;;;;;;;;;;;;12.16;44.17;101322.69;4928925;28;98288;-60
2023/09/24 01:08:17;;;;;;;;;;;;;;;12.13;44.16;101327.81;4925680;28;99775;-55
2023/09/24 01:10:47;;;;;;;;;;;;;;;12.09;44.29;101327.50;4928449;28;98641;-61
2023/09/24 01:13:20;;;;;;;;;;;;;;;12.07;44.42;101332.34;4903780;28;98265;-55
2023/09/24 01:15:50;;;;;;;;;;;;;;;12.05;44.18;101337.19;4888414;28;98033;-57
2023/09/24 01:18:17;;;;;;;;;;;;;;;12.04;44.37;101339.09;4883601;28;98666;-61
2023/09/24 01:20:43;;;;;;;;;;;;;;;12.01;44.30;101339.59;4923051;28;98372;-55
2023/09/24 01:23:10;;;;;;;;;;;;;;;11.99;44.28;101338.22;4904672;28;98170;-55
2023/09/24 01:25:37;;;;;;;;;;;;;;;11.97;44.32;101343.88;4889558;28;100318;-60
2023/09/24 01:28:03;;;;;;;;;;;;;;;11.97;44.21;101345.75;4900186;28;98474;-61
2023/09/24 01:30:30;;;;;;;;;;;;;;;11.95;44.34;101343.31;4901336;28;98174;-61
2023/09/24 01:32:57;;;;;;;;;;;;;;;11.93;44.31;101350.03;4914796;28;98393;-55
2023/09/24 01:35:27;;;;;;;;;;;;;;;11.92;44.37;101348.41;4899314;28;98920;-55
2023/09/24 01:37:56;;;;;;;;;;;;;;;11.91;44.57;101360.31;4900918;28;99189;-61
2023/09/24 01:40:24;;;;;;;;;;;;;;;11.89;44.16;101365.13;4901428;28;98088;-61
2023/09/24 01:42:52;;;;;;;;;;;;;;;11.88;44.14;101358.09;4888506;28;98252;-61
2023/09/24 01:45:18;;;;;;;;;;;;;;;11.86;44.38;101358.34;4900873;28;103097;-56
2023/09/24 01:47:49;;;;;;;;;;;;;;;11.85;44.42;101361.31;4901088;28;98494;-61
2023/09/24 01:50:16;;;;;;;;;;;;;;;11.84;44.43;101360.50;4901105;28;99769;-61
2023/09/24 01:52:43;;;;;;;;;;;;;;;11.83;44.38;101368.81;4910590;28;97884;-55
2023/09/24 01:55:13;;;;;;;;;;;;;;;11.80;44.33;101368.25;4885744;28;114099;-56
2023/09/24 01:57:41;;;;;;;;;;;;;;;11.77;44.17;101365.25;4899982;28;100061;-61
2023/09/24 02:00:23;;;;;;;;;;;;;;;11.77;44.40;101371.47;4898590;28;99818;-56
2023/09/24 02:02:54;;;;;;;;;;;;;;;11.75;44.24;101376.31;4886292;28;99367;-56
2023/09/24 02:05:20;;;;;;;;;;;;;;;11.73;44.56;101373.03;4887247;28;98106;-61
2023/09/24 02:07:48;;;;;;;;;;;;;;;11.72;44.41;101373.31;4866219;28;98933;-55
2023/09/24 02:10:17;;;;;;;;;;;;;;;11.68;44.25;101378.38;4878277;28;99488;-61
2023/09/24 02:12:45;;;;;;;;;;;;;;;11.66;44.43;101379.69;4925276;28;98896;-61
2023/09/24 02:15:14;;;;;;;;;;;;;;;11.65;44.30;101383.47;4921787;28;98208;-56
2023/09/24 02:17:41;;;;;;;;;;;;;;;11.63;44.55;101391.00;4922889;28;98353;-55
2023/09/24 02:20:32;;;;;;;;;;;;;;;11.60;44.56;101384.25;4933820;28;98051;-61
2023/09/24 02:23:01;;;;;;;;;;;;;;;11.58;44.40;101396.34;4938533;28;98937;-61
2023/09/24 02:25:32;;;;;;;;;;;;;;;11.55;44.52;101393.09;4927570;28;104699;-55
2023/09/24 02:27:58;;;;;;;;;;;;;;;11.55;44.49;101397.66;4926783;28;99801;-61
2023/09/24 02:30:27;;;;;;;;;;;;;;;11.52;44.47;101392.78;4922244;28;98036;-61
2023/09/24 02:32:53;;;;;;;;;;;;;;;11.50;44.37;101397.59;4936368;28;98010;-55
2023/09/24 02:35:19;;;;;;;;;;;;;;;11.49;44.26;101398.69;4908087;28;98683;-61
2023/09/24 02:37:47;;;;;;;;;;;;;;;11.47;44.32;101403.50;4900976;28;98737;-56
2023/09/24 02:40:21;;;;;;;;;;;;;;;11.43;44.58;101400.47;4918453;28;98350;-55
2023/09/24 02:42:47;;;;;;;;;;;;;;;11.42;44.41;101409.66;4922846;28;98191;-61
2023/09/24 02:45:15;;;;;;;;;;;;;;;11.40;44.55;101405.59;4922478;28;97969;-61
2023/09/24 02:47:42;;;;;;;;;;;;;;;11.37;44.50;101414.19;4921583;28;99353;-61
2023/09/24 02:50:08;;;;;;;;;;;;;;;11.33;44.50;101424.66;4910759;28;98317;-61
2023/09/24 02:52:35;;;;;;;;;;;;;;;11.30;44.26;101425.16;4925879;28;98345;-55
2023/09/24 02:55:04;;;;;;;;;;;;;;;11.27;44.59;101429.16;4937452;28;98315;-60
2023/09/24 02:57:30;;;;;;;;;;;;;;;11.24;44.33;101428.84;4925682;28;98804;-55
2023/09/24 02:59:58;;;;;;;;;;;;;;;11.21;44.71;101440.13;4909625;28;100142;-60
2023/09/24 03:02:28;;;;;;;;;;;;;;;11.18;44.44;101436.03;4913343;28;98059;-61
2023/09/24 03:04:55;;;;;;;;;;;;;;;11.13;44.37;101443.25;4924776;28;98157;-61
2023/09/24 03:07:21;;;;;;;;;;;;;;;11.09;44.55;101445.63;4906656;28;100267;-61
2023/09/24 03:09:47;;;;;;;;;;;;;;;11.03;44.64;101449.31;4912499;28;98468;-61
2023/09/24 03:12:13;;;;;;;;;;;;;;;10.97;44.31;101456.50;4938041;28;97944;-55
2023/09/24 03:14:39;;;;;;;;;;;;;;;10.91;44.51;101467.47;4909595;28;116896;-61
2023/09/24 03:17:05;;;;;;;;;;;;;;;10.84;44.39;101470.31;4911733;28;99648;-55
2023/09/24 03:19:31;;;;;;;;;;;;;;;10.79;44.42;101481.03;4935991;28;99930;-55
2023/09/24 03:21:57;;;;;;;;;;;;;;;10.72;44.95;101474.97;4919659;28;98246;-61
2023/09/24 03:24:23;;;;;;;;;;;;;;;10.67;44.85;101477.56;4910439;28;98260;-55
2023/09/24 03:26:49;;;;;;;;;;;;;;;10.64;44.68;101481.56;4885645;28;99772;-56
2023/09/24 03:29:15;;;;;;;;;;;;;;;10.61;44.46;101479.38;4904798;28;98124;-61
2023/09/24 03:31:42;;;;;;;;;;;;;;;10.59;44.58;101477.97;4885553;28;98377;-55
2023/09/24 03:34:08;;;;;;;;;;;;;;;10.55;44.97;101483.84;4921304;28;97917;-55
2023/09/24 03:36:34;;;;;;;;;;;;;;;10.53;44.77;101482.44;4932660;28;120362;-61
2023/09/24 03:39:00;;;;;;;;;;;;;;;10.52;44.56;101484.31;4893804;28;98336;-61
2023/09/24 03:41:26;;;;;;;;;;;;;;;10.50;44.55;101486.47;4885855;28;100700;-55
2023/09/24 03:43:52;;;;;;;;;;;;;;;10.48;44.87;101485.88;4905920;28;98572;-55
2023/09/24 03:46:18;;;;;;;;;;;;;;;10.47;44.84;101492.34;4924935;28;98326;-56
2023/09/24 03:48:44;;;;;;;;;;;;;;;10.46;44.71;101506.88;4927525;28;98344;-55
2023/09/24 03:51:10;;;;;;;;;;;;;;;10.44;44.60;101513.56;4907432;28;127670;-61
2023/09/24 03:53:37;;;;;;;;;;;;;;;10.41;44.56;101522.13;4887758;28;99617;-61
2023/09/24 03:56:07;;;;;;;;;;;;;;;10.38;44.73;101525.31;4891830;28;98435;-56
2023/09/24 03:58:33;;;;;;;;;;;;;;;10.36;44.51;101525.53;4923175;28;98082;-61
2023/09/24 04:01:10;;;;;;;;;;;;;;;10.37;44.90;101537.13;4918907;28;99862;-55
2023/09/24 04:03:37;;;;;;;;;;;;;;;10.36;44.48;101533.63;4934378;28;107657;-55
2023/09/24 04:06:12;;;;;;;;;;;;;;;10.37;44.33;101534.44;4940443;28;98492;-56
2023/09/24 04:08:38;;;;;;;;;;;;;;;10.37;44.70;101537.13;4909361;28;98131;-61
2023/09/24 04:11:11;;;;;;;;;;;;;;;10.36;44.42;101547.09;4925082;28;98341;-61
2023/09/24 04:13:38;;;;;;;;;;;;;;;10.36;44.51;101548.97;4936426;28;98201;-61
2023/09/24 04:16:09;;;;;;;;;;;;;;;10.37;44.35;101547.91;4905244;28;98217;-56
2023/09/24 04:18:35;;;;;;;;;;;;;;;10.38;44.96;101560.34;4904556;28;98097;-55
2023/09/24 04:21:02;;;;;;;;;;;;;;;10.38;44.33;101569.25;4920551;28;98567;-56
2023/09/24 04:23:28;;;;;;;;;;;;;;;10.41;44.43;101563.38;4920890;28;98188;-55
2023/09/24 04:25:54;;;;;;;;;;;;;;;10.42;44.94;101564.22;4926834;28;100111;-55
2023/09/24 04:28:21;;;;;;;;;;;;;;;10.45;44.40;101571.78;4937265;28;100959;-55
2023/09/24 04:30:47;;;;;;;;;;;;;;;10.46;44.76;101563.50;4924945;28;98571;-61
2023/09/24 04:33:13;;;;;;;;;;;;;;;10.49;44.43;101571.09;4891337;28;97950;-61
2023/09/24 04:35:39;;;;;;;;;;;;;;;10.51;44.94;101568.97;4904965;28;98640;-61
2023/09/24 04:38:07;;;;;;;;;;;;;;;10.53;44.93;101576.81;4919159;28;98125;-56
2023/09/24 04:40:34;;;;;;;;;;;;;;;10.54;44.63;101576.59;4921902;28;98704;-61
2023/09/24 04:43:00;;;;;;;;;;;;;;;10.55;44.82;101572.00;4910689;28;98490;-61
2023/09/24 04:45:26;;;;;;;;;;;;;;;10.55;44.57;101575.50;4906483;28;100175;-61
2023/09/24 04:47:52;;;;;;;;;;;;;;;10.59;44.59;101575.03;4922749;28;98524;-55
2023/09/24 04:50:18;;;;;;;;;;;;;;;10.60;44.74;101582.06;4939158;28;98327;-61
2023/09/24 04:52:47;;;;;;;;;;;;;;;10.62;44.36;101585.34;4925825;28;98329;-61
2023/09/24 04:55:16;;;;;;;;;;;;;;;10.63;44.33;101587.78;4903559;28;100572;-61
2023/09/24 04:57:46;;;;;;;;;;;;;;;10.65;44.75;101591.09;4920850;28;103222;-55
2023/09/24 05:00:13;;;;;;;;;;;;;;;10.67;44.56;101597.03;4926887;28;100527;-61
2023/09/24 05:02:39;;;;;;;;;;;;;;;10.70;44.50;101606.53;4921965;28;98308;-55
2023/09/24 05:05:06;;;;;;;;;;;;;;;10.73;44.89;101611.47;4929862;28;128649;-55
2023/09/24 05:07:32;;;;;;;;;;;;;;;10.74;44.74;101608.50;4904305;28;98227;-56
2023/09/24 05:09:58;;;;;;;;;;;;;;;10.76;44.31;101613.66;4922552;28;127947;-56
2023/09/24 05:12:25;;;;;;;;;;;;;;;10.78;44.41;101616.94;4935695;28;98060;-61
2023/09/24 05:14:51;;;;;;;;;;;;;;;10.80;44.18;101620.19;4922262;28;99582;-61
2023/09/24 05:17:17;;;;;;;;;;;;;;;10.84;44.70;101617.84;4925967;28;98157;-61
2023/09/24 05:19:43;;;;;;;;;;;;;;;10.87;44.54;101618.19;4936145;28;99477;-55
2023/09/24 05:22:09;;;;;;;;;;;;;;;10.92;44.43;101617.44;4885962;28;98186;-61
2023/09/24 05:24:36;;;;;;;;;;;;;;;10.96;44.32;101614.03;4907947;28;100341;-56
2023/09/24 05:27:02;;;;;;;;;;;;;;;11.01;44.33;101624.13;4903528;28;98268;-61
2023/09/24 05:29:28;;;;;;;;;;;;;;;11.05;44.29;101625.28;4936663;28;98390;-61
2023/09/24 05:31:55;;;;;;;;;;;;;;;11.07;44.46;101620.44;4918998;28;98289;-61
2023/09/24 05:34:21;;;;;;;;;;;;;;;11.11;44.44;101628.88;4886393;28;98272;-56
2023/09/24 05:36:50;;;;;;;;;;;;;;;11.12;44.63;101634.03;4884546;28;106570;-61
2023/09/24 05:39:16;;;;;;;;;;;;;;;11.13;44.27;101634.84;4935732;28;98040;-61
2023/09/24 05:41:42;;;;;;;;;;;;;;;11.17;44.72;101644.09;4918997;28;98236;-61
2023/09/24 05:44:08;;;;;;;;;;;;;;;11.17;44.23;101650.31;4923061;28;99585;-56
2023/09/24 05:46:34;;;;;;;;;;;;;;;11.18;44.53;101654.63;4919028;28;99091;-56
2023/09/24 05:49:00;;;;;;;;;;;;;;;11.23;44.43;101657.41;4919490;28;128807;-56
2023/09/24 05:51:26;;;;;;;;;;;;;;;11.30;44.56;101652.69;4922343;28;98594;-56
2023/09/24 05:53:52;;;;;;;;;;;;;;;11.41;44.55;101658.28;4934055;28;99074;-61
2023/09/24 05:56:19;;;;;;;;;;;;;;;11.52;44.40;101655.50;4922108;28;98310;-56
2023/09/24 05:58:45;;;;;;;;;;;;;;;11.64;44.02;101654.63;4934603;28;98493;-61
2023/09/24 06:01:17;;;;;;;;;;;;;;;11.69;43.94;101657.38;4936256;28;98414;-61
2023/09/24 06:03:43;;;;;;;;;;;;;;;11.80;44.18;101660.00;4906917;28;98122;-56
2023/09/24 06:06:09;;;;;;;;;;;;;;;11.92;44.22;101661.84;4909234;28;98629;-62
2023/09/24 06:08:37;;;;;;;;;;;;;;;12.02;44.27;101670.91;4939162;28;98155;-55
2023/09/24 06:11:04;;;;;;;;;;;;;;;12.15;44.16;101668.94;4879254;28;101390;-61
2023/09/24 06:13:30;;;;;;;;;;;;;;;12.26;44.28;101666.13;4886211;28;99893;-56
2023/09/24 06:16:00;;;;;;;;;;;;;;;12.40;44.15;101665.75;4957251;28;98171;-61
2023/09/24 06:18:26;;;;;;;;;;;;;;;12.49;43.93;101675.88;4884033;28;98098;-56
2023/09/24 06:20:52;;;;;;;;;;;;;;;12.56;44.05;101680.28;4940119;28;98621;-55
2023/09/24 06:23:18;;;;;;;;;;;;;;;12.61;44.28;101675.75;4893347;28;98170;-56
2023/09/24 06:25:45;;;;;;;;;;;;;;;12.68;44.24;101681.78;4922013;28;98227;-55
2023/09/24 06:28:11;;;;;;;;;;;;;;;12.78;44.25;101673.81;4922461;28;98061;-56
2023/09/24 06:30:38;;;;;;;;;;;;;;;12.88;44.21;101680.41;4921925;28;98187;-61
2023/09/24 06:33:05;;;;;;;;;;;;;;;12.91;44.07;101686.13;4941641;28;98379;-56
2023/09/24 06:35:36;;;;;;;;;;;;;;;12.95;44.22;101692.66;4907279;28;99516;-61
2023/09/24 06:38:02;;;;;;;;;;;;;;;12.95;44.22;101695.38;4920808;28;98280;-61
2023/09/24 06:40:29;;;;;;;;;;;;;;;12.98;44.32;101700.28;4886275;28;98824;-61
2023/09/24 06:42:55;;;;;;;;;;;;;;;13.05;44.04;101710.06;4929384;28;98367;-56
2023/09/24 06:45:22;;;;;;;;;;;;;;;13.13;44.35;101715.88;4923976;28;103228;-61
2023/09/24 06:47:48;;;;;;;;;;;;;;;13.25;44.12;101702.22;4909254;28;98318;-56
2023/09/24 06:50:14;;;;;;;;;;;;;;;13.38;44.13;101707.22;4909465;28;98393;-56
2023/09/24 06:52:40;;;;;;;;;;;;;;;13.54;43.79;101708.19;4890237;28;99720;-61
2023/09/24 06:55:09;;;;;;;;;;;;;;;13.71;43.90;101713.47;4921250;28;100197;-61
2023/09/24 06:57:36;;;;;;;;;;;;;;;13.82;43.94;101708.97;4909035;28;98245;-56
2023/09/24 07:00:08;;;;;;;;;;;;;;;13.93;43.54;101714.19;4890968;28;98660;-56
2023/09/24 07:02:34;;;;;;;;;;;;;;;14.02;43.59;101713.72;4908094;28;98640;-61
2023/09/24 07:05:01;;;;;;;;;;;;;;;14.12;43.63;101711.09;4902962;28;98455;-56
2023/09/24 07:07:27;;;;;;;;;;;;;;;14.29;43.41;101713.63;4909736;28;97912;-56
2023/09/24 07:09:53;;;;;;;;;;;;;;;14.44;43.38;101719.16;4936190;28;98359;-61
2023/09/24 07:12:19;;;;;;;;;;;;;;;14.63;43.45;101722.25;4924171;28;99342;-62
2023/09/24 07:14:45;;;;;;;;;;;;;;;14.77;43.47;101722.59;4907711;28;130960;-61
2023/09/24 07:17:11;;;;;;;;;;;;;;;14.96;43.07;101726.47;4934570;28;119492;-61
2023/09/24 07:19:37;;;;;;;;;;;;;;;15.12;42.95;101724.63;4921190;28;98372;-55
2023/09/24 07:22:03;;;;;;;;;;;;;;;15.15;43.12;101733.03;4904559;28;98235;-61
2023/09/24 07:24:29;;;;;;;;;;;;;;;15.27;43.31;101732.81;4929426;28;98634;-61
2023/09/24 07:26:58;;;;;;;;;;;;;;;15.51;43.13;101729.59;4888195;28;101801;-55
2023/09/24 07:29:24;;;;;;;;;;;;;;;15.64;42.98;101729.88;4922431;28;98402;-60
2023/09/24 07:31:54;;;;;;;;;;;;;;;15.77;43.06;101725.84;4943876;28;100848;-57
2023/09/24 07:34:20;;;;;;;;;;;;;;;15.99;42.87;101730.97;4930128;28;99484;-62
2023/09/24 07:36:46;;;;;;;;;;;;;;;16.14;42.79;101738.31;4917455;28;99070;-56
2023/09/24 07:39:12;;;;;;;;;;;;;;;16.32;42.71;101743.19;4933344;28;98500;-62
2023/09/24 07:41:38;;;;;;;;;;;;;;;16.44;42.68;101742.91;4901189;28;98154;-56
2023/09/24 07:44:04;;;;;;;;;;;;;;;16.61;42.84;101748.00;4918139;28;98457;-61
2023/09/24 07:46:30;;;;;;;;;;;;;;;16.80;42.56;101742.81;4918534;28;98766;-56
2023/09/24 07:48:57;;;;;;;;;;;;;;;17.07;42.29;101745.16;4920786;28;99505;-56
2023/09/24 07:51:23;;;;;;;;;;;;;;;17.32;42.23;101741.47;4914680;28;99790;-56
2023/09/24 07:53:50;;;;;;;;;;;;;;;17.42;42.40;101749.59;4934295;28;99587;-62
2023/09/24 07:56:16;;;;;;;;;;;;;;;17.43;42.36;101743.84;4947311;28;98151;-62
2023/09/24 07:58:42;;;;;;;;;;;;;;;17.51;42.58;101745.16;4903687;28;102178;-56
2023/09/24 08:01:10;;;;;;;;;;;;;;;17.60;42.51;101750.81;4935335;28;98433;-62
2023/09/24 08:03:37;;;;;;;;;;;;;;;17.63;42.57;101753.78;4912283;28;99495;-56
2023/09/24 08:06:04;;;;;;;;;;;;;;;17.62;42.54;101763.06;4904866;28;98406;-62
2023/09/24 08:08:30;;;;;;;;;;;;;;;17.54;42.70;101773.78;4902603;28;98294;-62
2023/09/24 08:10:57;;;;;;;;;;;;;;;17.49;42.92;101771.91;4934629;28;98545;-56
2023/09/24 08:13:23;;;;;;;;;;;;;;;17.49;42.81;101776.50;4902170;28;98263;-56
2023/09/24 08:15:49;;;;;;;;;;;;;;;17.65;42.81;101776.16;4948171;28;98756;-55
2023/09/24 08:18:16;;;;;;;;;;;;;;;17.91;42.79;101775.97;4940789;28;98059;-61
2023/09/24 08:20:44;;;;;;;;;;;;;;;18.14;42.34;101774.41;4916442;28;98395;-55
2023/09/24 08:23:10;;;;;;;;;;;;;;;18.43;42.21;101776.31;4916225;28;100429;-61
2023/09/24 08:25:40;;;;;;;;;;;;;;;18.90;42.08;101770.09;4945887;28;99048;-61
2023/09/24 08:28:07;;;;;;;;;;;;;;;19.05;41.71;101767.16;4901965;28;98432;-55
2023/09/24 08:30:33;;;;;;;;;;;;;;;20.15;40.88;101774.28;4916598;28;99035;-55
2023/09/24 08:33:00;;;;;;;;;;;;;;;21.67;39.69;101764.91;4919463;28;99534;-55
2023/09/24 08:35:26;;;;;;;;;;;;;;;22.09;39.62;101776.50;4918225;28;97936;-61
2023/09/24 08:37:53;;;;;;;;;;;;;;;21.96;39.95;101785.59;4915964;28;98733;-61
2023/09/24 08:40:19;;;;;;;;;;;;;;;21.59;40.51;101784.06;4903729;28;98515;-61
2023/09/24 08:42:47;;;;;;;;;;;;;;;21.94;40.28;101785.94;4909798;28;98475;-56
2023/09/24 08:45:19;;;;;;;;;;;;;;;21.88;40.51;101795.41;4889844;28;98075;-61
2023/09/24 08:47:46;;;;;;;;;;;;;;;22.60;39.90;101788.09;4890581;28;98399;-55
2023/09/24 08:50:12;;;;;;;;;;;;;;;22.74;39.91;101786.84;4905819;28;98160;-61
2023/09/24 08:52:42;;;;;;;;;;;;;;;23.53;39.57;101788.63;4924293;28;100095;-61
2023/09/24 08:55:10;;;;;;;;;;;;;;;24.18;39.13;101788.78;4898678;28;98575;-56
2023/09/24 08:57:39;;;;;;;;;;;;;;;23.95;39.57;101796.44;4920799;28;99617;-61
2023/09/24 09:00:09;;;;;;;;;;;;;;;24.23;39.57;101799.63;4916012;28;98669;-57
2023/09/24 09:02:35;;;;;;;;;;;;;;;24.63;39.04;101791.88;4921253;28;98048;-62
2023/09/24 09:05:25;;;;;;;;;;;;;;;25.08;38.91;101788.56;4905647;28;98657;-56
2023/09/24 09:08:04;;;;;;;;;;;;;;;24.51;39.51;101802.00;4915146;28;98740;-56
2023/09/24 09:10:33;;;;;;;;;;;;;;;24.68;39.83;101808.25;4910552;28;99824;-61
2023/09/24 09:13:07;;;;;;;;;;;;;;;24.97;39.33;101812.16;4882794;28;98371;-55
2023/09/24 09:15:35;;;;;;;;;;;;;;;24.93;39.79;101800.19;4901965;28;99087;-55
2023/09/24 09:18:02;;;;;;;;;;;;;;;25.05;39.38;101802.22;4919570;28;97963;-61
2023/09/24 09:20:50;;;;;;;;;;;;;;;25.05;39.46;101794.75;4886565;28;99512;-55
2023/09/24 09:23:18;;;;;;;;;;;;;;;25.14;39.88;101792.78;4908187;28;98482;-56
2023/09/24 09:25:52;;;;;;;;;;;;;;;25.32;39.81;101790.72;4905828;28;121106;-62
2023/09/24 09:28:22;;;;;;;;;;;;;;;25.51;39.48;101787.50;4920027;28;98389;-62
2023/09/24 09:31:01;;;;;;;;;;;;;;;25.73;39.34;101786.31;4917863;28;98944;-55
2023/09/24 09:33:28;;;;;;;;;;;;;;;25.94;39.14;101786.31;4915209;28;98726;-56
2023/09/24 09:35:54;;;;;;;;;;;;;;;26.36;39.12;101791.69;4905215;28;98333;-61
2023/09/24 09:38:20;;;;;;;;;;;;;;;26.65;38.80;101785.22;4898979;28;98092;-55
2023/09/24 09:40:52;;;;;;;;;;;;;;;26.18;39.58;101794.66;4889795;28;99822;-56
2023/09/24 09:43:18;;;;;;;;;;;;;;;25.18;40.55;101787.41;4917969;28;98552;-56
2023/09/24 09:45:46;;;;;;;;;;;;;;;25.84;39.83;101781.22;4890719;28;99113;-56
2023/09/24 09:48:12;;;;;;;;;;;;;;;26.80;38.76;101770.69;4919633;28;98071;-62
2023/09/24 09:50:42;;;;;;;;;;;;;;;27.37;38.48;101768.88;4904170;28;98378;-55
2023/09/24 09:53:08;;;;;;;;;;;;;;;27.63;38.44;101774.00;4915637;28;100555;-55
2023/09/24 09:55:40;;;;;;;;;;;;;;;28.22;38.18;101778.78;4903055;28;97931;-62
2023/09/24 09:58:06;;;;;;;;;;;;;;;28.17;38.68;101775.47;4904337;28;98426;-62
2023/09/24 10:00:33;;;;;;;;;;;;;;;26.95;39.73;101780.22;4916889;28;99880;-62
2023/09/24 10:02:59;;;;;;;;;;;;;;;26.40;40.24;101778.81;4890639;28;97982;-61
2023/09/24 10:05:26;;;;;;;;;;;;;;;26.18;40.42;101777.28;4900513;28;98158;-61
2023/09/24 10:07:53;;;;;;;;;;;;;;;25.39;41.00;101779.94;4925508;28;98386;-55
2023/09/24 10:10:32;;;;;;;;;;;;;;;24.94;41.31;101783.28;4908072;28;99473;-61
2023/09/24 10:13:03;;;;;;;;;;;;;;;25.88;40.22;101780.19;4922324;28;99110;-61
2023/09/24 10:15:32;;;;;;;;;;;;;;;25.14;41.10;101789.22;4919900;28;99468;-61
2023/09/24 10:18:22;;;;;;;;;;;;;;;25.85;40.11;101782.81;4920003;28;98276;-56
2023/09/24 10:20:53;;;;;;;;;;;;;;;27.82;38.23;101787.19;4913476;28;98342;-62
2023/09/24 10:23:31;;;;;;;;;;;;;;;29.03;37.45;101786.72;4929833;28;99510;-62
2023/09/24 10:26:00;;;;;;;;;;;;;;;29.19;37.62;101795.81;4916045;28;107322;-62
2023/09/24 10:28:48;;;;;;;;;;;;;;;28.57;38.45;101784.47;4919805;28;98350;-56
2023/09/24 10:31:16;;;;;;;;;;;;;;;28.25;39.31;101782.81;4918552;28;98614;-56
2023/09/24 10:34:02;;;;;;;;;;;;;;;27.54;39.59;101778.84;4931990;28;98197;-56
2023/09/24 10:36:33;;;;;;;;;;;;;;;26.72;40.23;101781.84;4919926;28;98768;-62
2023/09/24 10:39:11;;;;;;;;;;;;;;;26.06;40.89;101780.03;4920302;28;98401;-61
2023/09/24 10:41:57;;;;;;;;;;;;;;;25.32;41.46;101790.72;4921909;28;98306;-62
2023/09/24 10:44:27;;;;;;;;;;;;;;;24.66;41.94;101790.41;4902834;28;98154;-56
2023/09/24 10:46:53;;;;;;;;;;;;;;;24.25;41.95;101789.91;4950593;28;98287;-61
2023/09/24 10:49:24;;;;;;;;;;;;;;;23.90;42.16;101791.09;4905141;28;98318;-62
2023/09/24 10:52:00;;;;;;;;;;;;;;;23.65;42.33;101787.19;4928012;28;99493;-55
2023/09/24 10:54:26;;;;;;;;;;;;;;;23.51;42.38;101792.88;4936037;28;99810;-61
2023/09/24 10:56:52;;;;;;;;;;;;;;;23.45;42.46;101781.19;4883114;28;98015;-61
2023/09/24 10:59:30;;;;;;;;;;;;;;;23.52;41.96;101787.03;4920132;28;98220;-55
2023/09/24 11:01:56;;;;;;;;;;;;;;;23.97;41.67;101777.63;4891595;28;99682;-60
2023/09/24 11:04:28;;;;;;;;;;;;;;;23.82;41.62;101784.47;4918354;28;123451;-56
2023/09/24 11:07:06;;;;;;;;;;;;;;;23.93;41.54;101783.00;4917199;28;100487;-56
2023/09/24 11:09:32;;;;;;;;;;;;;;;26.10;39.41;101781.75;4920022;28;113643;-62
2023/09/24 11:11:59;;;;;;;;;;;;;;;27.88;37.90;101781.06;4932004;28;99945;-62
2023/09/24 11:14:26;;;;;;;;;;;;;;;29.24;37.35;101784.44;4919329;28;98224;-56
2023/09/24 11:16:53;;;;;;;;;;;;;;;28.26;38.67;101785.22;4906294;28;98348;-61
2023/09/24 11:19:49;;;;;;;;;;;;;;;29.10;37.88;101781.34;4887448;28;98504;-61
2023/09/24 11:22:25;;;;;;;;;;;;;;;30.32;37.00;101771.50;4913193;28;98276;-62
2023/09/24 11:25:08;;;;;;;;;;;;;;;31.00;36.42;101777.34;4923656;28;98940;-56
2023/09/24 11:27:35;;;;;;;;;;;;;;;31.28;36.54;101777.75;4926080;28;98263;-56
2023/09/24 11:30:02;;;;;;;;;;;;;;;31.71;36.15;101778.25;4918504;28;100450;-56
2023/09/24 11:32:28;;;;;;;;;;;;;;;32.24;35.93;101769.69;4917140;28;98379;-56
2023/09/24 11:35:08;;;;;;;;;;;;;;;32.14;36.63;101769.56;4922292;28;98050;-62
2023/09/24 11:37:50;;;;;;;;;;;;;;;32.59;35.91;101764.81;4905030;28;98721;-57
2023/09/24 11:40:26;;;;;;;;;;;;;;;32.73;36.32;101770.47;4915177;28;98810;-62
2023/09/24 11:42:59;;;;;;;;;;;;;;;32.90;36.31;101769.81;4904979;28;98632;-56
2023/09/24 11:45:46;;;;;;;;;;;;;;;33.08;36.27;101761.53;4916301;28;98530;-62
2023/09/24 11:48:20;;;;;;;;;;;;;;;33.26;35.85;101758.84;4928327;28;98716;-61
2023/09/24 11:50:46;;;;;;;;;;;;;;;33.51;36.24;101770.13;4918499;28;98310;-57
2023/09/24 11:53:13;;;;;;;;;;;;;;;33.66;36.14;101766.19;4916394;28;98716;-57
2023/09/24 11:55:40;;;;;;;;;;;;;;;33.55;35.45;101768.16;4915936;28;99206;-56
2023/09/24 11:58:07;;;;;;;;;;;;;;;33.35;36.34;101767.66;4922560;28;98328;-56
2023/09/24 12:00:35;;;;;;;;;;;;;;;33.33;35.47;101758.06;4939112;28;98377;-62
2023/09/24 12:03:01;;;;;;;;;;;;;;;32.16;36.79;101756.88;4906697;28;99579;-62
2023/09/24 12:05:28;;;;;;;;;;;;;;;30.27;38.59;101757.13;4886879;28;98092;-56
2023/09/24 12:07:54;;;;;;;;;;;;;;;28.89;39.86;101750.34;4900777;28;98882;-62
2023/09/24 12:10:23;;;;;;;;;;;;;;;27.85;40.74;101761.56;4933975;28;98655;-56
2023/09/24 12:12:50;;;;;;;;;;;;;;;27.05;41.26;101754.06;4920543;28;99453;-62
2023/09/24 12:15:17;;;;;;;;;;;;;;;26.38;41.45;101746.00;4897679;28;99409;-62
2023/09/24 12:17:45;;;;;;;;;;;;;;;25.87;41.72;101750.16;4920463;28;98680;-61
2023/09/24 12:20:12;;;;;;;;;;;;;;;25.43;41.97;101753.31;4914857;28;98516;-61
2023/09/24 12:22:41;;;;;;;;;;;;;;;25.10;42.01;101761.47;4899226;28;100029;-57
2023/09/24 12:25:11;;;;;;;;;;;;;;;24.77;42.00;101755.84;4902433;28;98554;-61
2023/09/24 12:27:37;;;;;;;;;;;;;;;24.46;42.31;101762.47;4919435;28;98551;-56
2023/09/24 12:30:05;;;;;;;;;;;;;;;24.16;42.58;101758.78;4897882;28;98534;-61
2023/09/24 12:32:32;;;;;;;;;;;;;;;23.95;42.41;101761.44;4939332;28;100127;-55
2023/09/24 12:34:58;;;;;;;;;;;;;;;23.79;42.55;101754.84;4920934;28;97964;-56
2023/09/24 12:37:25;;;;;;;;;;;;;;;24.23;41.71;101756.34;4940131;28;98197;-61
2023/09/24 12:39:51;;;;;;;;;;;;;;;23.82;42.35;101756.94;4935009;28;99917;-56
2023/09/24 12:42:18;;;;;;;;;;;;;;;23.81;42.23;101757.25;4938190;28;98719;-61